createdAt,value
2022-09-16T00:00:50.274Z,13.00
2022-09-16T00:02:40.295Z,13.00
2022-09-16T00:04:32.195Z,13.03
2022-09-16T00:07:09.889Z,13.01
2022-09-16T00:09:36.372Z,13.03
2022-09-16T00:15:16.512Z,13.04
2022-09-16T00:16:45.002Z,13.04
2022-09-16T00:18:15.164Z,13.04
2022-09-16T00:21:45.285Z,13.03
2022-09-16T00:23:14.203Z,13.03
2022-09-16T00:24:59.516Z,13.00
2022-09-16T00:26:50.160Z,13.00
2022-09-16T00:31:42.001Z,12.98
2022-09-16T00:33:33.537Z,12.94
2022-09-16T00:35:43.997Z,12.90
2022-09-16T00:46:10.290Z,12.68
2022-09-16T00:49:17.965Z,12.67
2022-09-16T00:52:36.540Z,12.65
2022-09-16T00:54:07.625Z,12.62
2022-09-16T00:58:12.465Z,12.62
2022-09-16T01:01:20.406Z,12.61
2022-09-16T01:03:19.555Z,12.61
2022-09-16T01:05:20.410Z,12.60
2022-09-16T01:09:34.810Z,12.57
2022-09-16T01:13:32.277Z,12.58
2022-09-16T01:16:18.825Z,12.58
2022-09-16T01:17:52.468Z,12.58
2022-09-16T01:22:32.032Z,12.57
2022-09-16T01:25:01.146Z,12.58
2022-09-16T01:27:02.448Z,12.58
2022-09-16T01:36:07.301Z,12.55
2022-09-16T01:40:51.817Z,12.57
2022-09-16T01:43:11.767Z,12.58
2022-09-16T01:56:55.495Z,12.58
2022-09-16T01:58:58.274Z,12.58
2022-09-16T02:01:08.431Z,12.60
2022-09-16T02:06:58.335Z,12.57
2022-09-16T02:11:02.926Z,12.55
2022-09-16T02:16:29.786Z,12.54
2022-09-16T02:20:16.331Z,12.50
2022-09-16T02:21:46.183Z,12.50
2022-09-16T02:23:16.560Z,12.47
2022-09-16T02:26:54.500Z,12.47
2022-09-16T02:29:42.105Z,12.46
2022-09-16T02:31:42.685Z,12.46
2022-09-16T02:34:12.485Z,12.46
2022-09-16T02:35:41.501Z,12.46
2022-09-16T02:38:10.545Z,12.45
2022-09-16T02:39:40.473Z,12.42
2022-09-16T02:42:20.905Z,12.42
2022-09-16T02:50:14.851Z,12.37
2022-09-16T02:55:34.202Z,12.35
2022-09-16T02:59:11.750Z,12.35
2022-09-16T03:00:41.667Z,12.35
2022-09-16T03:02:31.353Z,12.32
2022-09-16T03:07:07.077Z,12.35
2022-09-16T03:11:40.871Z,12.32
2022-09-16T03:14:07.664Z,12.31
2022-09-16T03:16:05.895Z,12.31
2022-09-16T03:19:23.298Z,12.29
2022-09-16T03:21:17.778Z,12.28
2022-09-16T03:23:42.295Z,12.28
2022-09-16T03:25:12.137Z,12.27
2022-09-16T03:26:44.027Z,12.29
2022-09-16T03:29:46.997Z,12.27
2022-09-16T03:33:15.150Z,12.24
2022-09-16T03:45:03.016Z,12.17
2022-09-16T03:47:32.492Z,12.17
2022-09-16T03:49:01.537Z,12.17
2022-09-16T03:53:32.004Z,12.15
2022-09-16T03:56:50.643Z,12.18
2022-09-16T03:59:39.871Z,12.15
2022-09-16T04:04:26.207Z,12.13
2022-09-16T04:09:05.974Z,12.12
2022-09-16T04:12:07.875Z,12.10
2022-09-16T04:15:43.940Z,12.09
2022-09-16T04:19:01.519Z,12.09
2022-09-16T04:22:40.974Z,12.07
2022-09-16T04:25:02.985Z,12.07
2022-09-16T04:26:33.831Z,12.07
2022-09-16T04:28:20.918Z,12.07
2022-09-16T04:34:52.166Z,12.02
2022-09-16T04:39:15.925Z,11.99
2022-09-16T04:41:12.487Z,11.99
2022-09-16T04:42:44.448Z,11.97
2022-09-16T04:44:59.143Z,11.95
2022-09-16T04:52:19.965Z,11.94
2022-09-16T04:54:20.316Z,11.94
2022-09-16T04:57:40.056Z,11.90
2022-09-16T05:02:04.402Z,11.88
2022-09-16T05:06:25.229Z,11.91
2022-09-16T05:07:54.300Z,11.94
2022-09-16T05:09:23.932Z,11.94
2022-09-16T05:11:28.102Z,11.95
2022-09-16T05:16:14.370Z,11.97
2022-09-16T05:18:13.130Z,11.94
2022-09-16T05:19:43.826Z,11.94
2022-09-16T05:22:44.547Z,11.91
2022-09-16T05:29:43.934Z,11.91
2022-09-16T05:32:04.625Z,11.91
2022-09-16T05:34:03.459Z,11.90
2022-09-16T05:36:57.816Z,11.91
2022-09-16T05:42:09.511Z,11.91
2022-09-16T05:43:41.915Z,11.90
2022-09-16T05:46:09.327Z,11.87
2022-09-16T05:48:47.954Z,11.87
2022-09-16T05:52:38.698Z,11.88
2022-09-16T05:55:34.690Z,11.88
2022-09-16T05:57:08.611Z,11.91
2022-09-16T06:00:36.299Z,11.88
2022-09-16T06:03:57.489Z,11.88
2022-09-16T06:20:43.346Z,11.94
2022-09-16T06:22:42.413Z,11.94
2022-09-16T06:28:00.274Z,12.00
2022-09-16T06:31:27.763Z,11.99
2022-09-16T06:38:45.869Z,12.06
2022-09-16T06:40:36.486Z,12.07
2022-09-16T06:46:45.992Z,12.15
2022-09-16T06:48:32.877Z,12.18
2022-09-16T06:51:46.980Z,12.18
2022-09-16T06:55:32.373Z,12.18
2022-09-16T06:59:36.915Z,12.25
2022-09-16T07:03:51.277Z,12.37
2022-09-16T07:07:11.027Z,12.37
2022-09-16T07:08:40.684Z,12.36
2022-09-16T07:10:39.241Z,12.32
2022-09-16T07:13:29.849Z,12.36
2022-09-16T07:16:50.822Z,12.40
2022-09-16T07:19:09.522Z,12.43
2022-09-16T07:20:39.617Z,12.46
2022-09-16T07:23:31.628Z,12.49
2022-09-16T07:25:52.298Z,12.57
2022-09-16T07:27:22.276Z,12.60
2022-09-16T07:34:48.922Z,12.70
2022-09-16T07:36:18.351Z,12.72
2022-09-16T07:44:24.903Z,12.90
2022-09-16T07:47:11.745Z,12.93
2022-09-16T07:55:01.024Z,13.12
2022-09-16T08:02:35.002Z,13.25
2022-09-16T08:04:47.806Z,13.31
2022-09-16T08:07:20.519Z,13.38
2022-09-16T08:11:20.813Z,13.49
2022-09-16T08:14:43.352Z,13.54
2022-09-16T08:16:14.655Z,13.59
2022-09-16T08:20:59.683Z,13.79
2022-09-16T08:26:05.332Z,13.92
2022-09-16T08:29:54.861Z,14.04
2022-09-16T08:38:20.426Z,14.18
2022-09-16T08:39:53.575Z,14.20
2022-09-16T08:44:57.105Z,14.23
2022-09-16T08:47:46.746Z,14.23
2022-09-16T08:58:48.605Z,14.26
2022-09-16T09:01:17.399Z,14.33
2022-09-16T09:03:46.158Z,14.41
2022-09-16T09:08:47.953Z,14.50
2022-09-16T09:12:03.687Z,14.54
2022-09-16T09:14:02.888Z,14.63
2022-09-16T09:15:31.770Z,14.70
2022-09-16T09:17:30.700Z,14.79
2022-09-16T09:20:33.119Z,14.88
2022-09-16T09:23:02.001Z,14.94
2022-09-16T09:25:00.815Z,15.00
2022-09-16T09:26:29.685Z,15.02
2022-09-16T09:29:30.956Z,14.97
2022-09-16T09:32:49.066Z,15.00
2022-09-16T09:39:58.460Z,15.18
2022-09-16T09:41:29.383Z,15.22
2022-09-16T09:42:56.782Z,15.25
2022-09-16T09:45:01.349Z,15.28
2022-09-16T09:53:49.987Z,15.46
2022-09-16T10:02:54.816Z,15.68
2022-09-16T10:05:23.535Z,15.62
2022-09-16T10:07:23.471Z,15.62
2022-09-16T10:08:54.075Z,15.64
2022-09-16T10:10:21.951Z,15.72
2022-09-16T10:12:41.600Z,15.84
2022-09-16T10:16:16.422Z,15.90
2022-09-16T10:20:44.907Z,15.80
2022-09-16T10:24:24.547Z,15.84
2022-09-16T10:25:54.613Z,15.94
2022-09-16T10:28:41.947Z,16.10
2022-09-16T10:34:19.393Z,16.43
2022-09-16T10:42:15.306Z,16.46
2022-09-16T10:44:04.032Z,16.35
2022-09-16T10:50:10.693Z,16.04
2022-09-16T10:52:33.290Z,16.00
2022-09-16T10:55:29.688Z,15.92
2022-09-16T10:59:10.942Z,15.84
2022-09-16T11:02:29.878Z,15.75
2022-09-16T11:05:04.688Z,15.64
2022-09-16T11:10:13.752Z,15.55
2022-09-16T11:12:37.132Z,15.52
2022-09-16T11:14:06.048Z,15.55
2022-09-16T11:19:42.965Z,16.12
2022-09-16T11:23:58.758Z,16.68
2022-09-16T11:25:29.622Z,16.76
2022-09-16T11:31:07.152Z,17.08
2022-09-16T11:35:34.941Z,17.27
2022-09-16T11:37:04.206Z,17.36
2022-09-16T11:40:01.955Z,17.51
2022-09-16T11:42:01.320Z,17.67
2022-09-16T11:43:28.695Z,17.76
2022-09-16T11:49:19.063Z,18.07
2022-09-16T11:56:15.688Z,18.37
2022-09-16T11:58:59.111Z,18.49
2022-09-16T12:01:27.872Z,18.26
2022-09-16T12:03:49.436Z,17.87
2022-09-16T12:05:46.390Z,17.72
2022-09-16T12:09:14.950Z,17.31
2022-09-16T12:12:13.900Z,16.97
2022-09-16T12:15:45.227Z,16.60
2022-09-16T12:17:15.127Z,16.61
2022-09-16T12:21:14.086Z,16.54
2022-09-16T12:24:53.332Z,16.54
2022-09-16T12:34:35.529Z,16.66
2022-09-16T12:36:35.820Z,16.87
2022-09-16T12:38:03.263Z,17.06
2022-09-16T12:41:34.513Z,17.59
2022-09-16T12:43:33.547Z,17.83
2022-09-16T12:48:49.393Z,18.55
2022-09-16T12:51:17.181Z,18.83
2022-09-16T12:56:32.750Z,18.99
2022-09-16T12:59:17.389Z,19.15
2022-09-16T13:02:34.620Z,19.33
2022-09-16T13:05:04.773Z,19.39
2022-09-16T13:06:55.961Z,19.45
2022-09-16T13:10:56.086Z,19.71
2022-09-16T13:19:05.195Z,19.15
2022-09-16T13:24:03.428Z,18.81
2022-09-16T13:25:33.458Z,18.90
2022-09-16T13:31:21.900Z,19.39
2022-09-16T13:33:28.011Z,19.52
2022-09-16T13:35:54.612Z,19.63
2022-09-16T13:37:24.046Z,19.63
2022-09-16T13:38:53.334Z,19.63
2022-09-16T13:48:13.525Z,19.34
2022-09-16T13:51:39.551Z,19.45
2022-09-16T13:54:28.082Z,19.59
2022-09-16T13:55:56.918Z,19.62
2022-09-16T13:57:25.861Z,19.63
2022-09-16T14:00:25.607Z,19.58
2022-09-16T14:02:00.446Z,19.45
2022-09-16T14:03:32.520Z,19.29
2022-09-16T14:07:33.184Z,19.30
2022-09-16T14:10:03.616Z,19.45
2022-09-16T14:12:06.242Z,19.54
2022-09-16T14:14:05.910Z,19.56
2022-09-16T14:20:48.494Z,19.84
2022-09-16T14:23:44.676Z,19.88
2022-09-16T14:26:43.432Z,20.04
2022-09-16T14:29:47.785Z,19.62
2022-09-16T14:32:08.578Z,19.36
2022-09-16T14:35:18.403Z,18.81
2022-09-16T14:36:50.363Z,18.63
2022-09-16T14:40:15.902Z,18.52
2022-09-16T14:43:43.792Z,18.55
2022-09-16T14:46:31.475Z,18.65
2022-09-16T14:51:42.320Z,18.73
2022-09-16T14:53:49.801Z,18.73
2022-09-16T14:56:29.135Z,18.74
2022-09-16T14:59:42.045Z,18.75
2022-09-16T15:02:36.063Z,18.66
2022-09-16T15:10:55.129Z,18.05
2022-09-16T15:14:40.524Z,18.00
2022-09-16T15:15:49.843Z,18.01
2022-09-16T15:17:48.815Z,18.03
2022-09-16T15:19:20.123Z,18.08
2022-09-16T15:28:43.848Z,18.23
2022-09-16T15:34:09.317Z,18.01
2022-09-16T15:35:39.737Z,17.95
2022-09-16T15:38:00.929Z,17.95
2022-09-16T15:39:33.678Z,17.89
2022-09-16T15:42:33.473Z,17.87
2022-09-16T15:52:47.244Z,17.70
2022-09-16T15:55:20.727Z,17.72
2022-09-16T15:57:18.614Z,17.70
2022-09-16T16:01:12.567Z,17.63
2022-09-16T16:05:39.503Z,17.45
2022-09-16T16:07:09.299Z,17.45
2022-09-16T16:11:38.273Z,17.36
2022-09-16T16:13:39.506Z,17.27
2022-09-16T16:16:08.364Z,17.23
2022-09-16T16:19:26.439Z,17.20
2022-09-16T16:22:18.209Z,17.16
2022-09-16T16:25:43.893Z,17.09
2022-09-16T16:32:12.782Z,16.97
2022-09-16T16:38:26.347Z,16.79
2022-09-16T16:42:34.338Z,16.66
2022-09-16T16:45:40.683Z,16.60
2022-09-16T16:50:35.842Z,16.50
2022-09-16T16:52:58.367Z,16.47
2022-09-16T16:55:55.018Z,16.41
2022-09-16T17:01:32.580Z,16.33
2022-09-16T17:06:04.852Z,16.16
2022-09-16T17:07:33.847Z,16.09
2022-09-16T17:10:52.055Z,15.86
2022-09-16T17:12:21.956Z,15.77
2022-09-16T17:13:51.773Z,15.68
2022-09-16T17:16:21.648Z,15.59
2022-09-16T17:20:19.214Z,15.46
2022-09-16T17:22:19.029Z,15.39
2022-09-16T17:26:51.493Z,15.22
2022-09-16T17:35:34.174Z,14.97
2022-09-16T17:37:22.063Z,14.92
2022-09-16T17:38:52.063Z,14.89
2022-09-16T17:43:42.582Z,14.79
2022-09-16T17:45:38.651Z,14.77
2022-09-16T17:49:12.458Z,14.72
2022-09-16T17:51:10.342Z,14.70
2022-09-16T17:53:00.107Z,14.68
2022-09-16T17:54:32.784Z,14.68
2022-09-16T17:56:02.847Z,14.66
2022-09-16T17:58:00.800Z,14.63
2022-09-16T17:59:34.958Z,14.62
2022-09-16T18:04:46.739Z,14.54
2022-09-16T18:07:11.174Z,14.51
2022-09-16T18:10:22.634Z,14.43
2022-09-16T18:12:45.423Z,14.35
2022-09-16T18:18:59.378Z,14.32
2022-09-16T18:22:25.542Z,14.28
2022-09-16T18:29:07.904Z,14.20
2022-09-16T18:30:35.064Z,14.18
2022-09-16T18:32:02.962Z,14.20
2022-09-16T18:36:44.881Z,14.12
2022-09-16T18:39:41.103Z,14.07
2022-09-16T18:42:01.177Z,14.05
2022-09-16T18:43:29.790Z,14.03
2022-09-16T18:45:59.339Z,14.00
2022-09-16T18:51:41.471Z,13.96
2022-09-16T18:53:31.317Z,13.97
2022-09-16T18:55:49.246Z,13.95
2022-09-16T18:57:50.008Z,13.93
2022-09-16T19:00:38.549Z,13.92
2022-09-16T19:02:39.638Z,13.89
2022-09-16T19:06:09.613Z,13.86
2022-09-16T19:07:37.690Z,13.85
2022-09-16T19:12:24.083Z,13.79
2022-09-16T19:15:51.657Z,13.79
2022-09-16T19:17:52.441Z,13.77
2022-09-16T19:23:22.115Z,13.77
2022-09-16T19:27:13.847Z,13.79
2022-09-16T19:29:14.201Z,13.81
2022-09-16T19:30:38.619Z,13.79
2022-09-16T19:34:13.047Z,13.79
2022-09-16T19:35:41.579Z,13.78
2022-09-16T19:37:11.500Z,13.74
2022-09-16T19:41:30.385Z,13.72
2022-09-16T19:44:55.675Z,13.67
2022-09-16T19:49:51.112Z,13.62
2022-09-16T19:52:49.528Z,13.60
2022-09-16T19:57:07.758Z,13.60
2022-09-16T19:58:38.616Z,13.60
2022-09-16T20:02:25.053Z,13.59
2022-09-16T20:04:53.337Z,13.59
2022-09-16T20:09:45.081Z,13.56
2022-09-16T20:13:39.662Z,13.56
2022-09-16T20:17:37.654Z,13.53
2022-09-16T20:19:46.246Z,13.50
2022-09-16T20:24:09.364Z,13.46
2022-09-16T20:26:04.801Z,13.46
2022-09-16T20:28:24.551Z,13.44
2022-09-16T20:29:54.719Z,13.41
2022-09-16T20:31:23.143Z,13.41
2022-09-16T20:32:54.120Z,13.41
2022-09-16T20:34:27.884Z,13.39
2022-09-16T20:35:55.019Z,13.38
2022-09-16T20:40:46.801Z,13.28
2022-09-16T20:43:08.858Z,13.25
2022-09-16T20:46:27.562Z,13.22
2022-09-16T20:49:33.335Z,13.23
2022-09-16T20:52:54.365Z,13.20
2022-09-16T20:55:04.385Z,13.22
2022-09-16T20:57:05.031Z,13.22
2022-09-16T20:58:53.977Z,13.20
2022-09-16T21:01:26.708Z,13.19
2022-09-16T21:03:27.536Z,13.16
2022-09-16T21:05:30.327Z,13.15
2022-09-16T21:06:58.404Z,13.15
2022-09-16T21:08:57.833Z,13.15
2022-09-16T21:10:27.378Z,13.16
2022-09-16T21:12:17.564Z,13.16
2022-09-16T21:17:01.605Z,13.05
2022-09-16T21:18:31.596Z,13.03
2022-09-16T21:20:59.019Z,13.01
2022-09-16T21:22:27.932Z,12.98
2022-09-16T21:27:12.818Z,12.90
2022-09-16T21:28:41.596Z,12.90
2022-09-16T21:30:41.606Z,12.83
2022-09-16T21:32:11.521Z,12.80
2022-09-16T21:35:09.701Z,12.73
2022-09-16T21:36:38.570Z,12.72
2022-09-16T21:41:36.099Z,12.67
2022-09-16T21:44:35.718Z,12.67
2022-09-16T21:48:50.442Z,12.62
2022-09-16T21:50:19.338Z,12.62
2022-09-16T21:56:15.907Z,12.64
2022-09-16T22:07:38.226Z,12.57
2022-09-16T22:10:07.934Z,12.54
2022-09-16T22:15:01.238Z,12.49
2022-09-16T22:24:23.034Z,12.39
2022-09-16T22:30:18.037Z,12.35
2022-09-16T22:32:44.852Z,12.35
2022-09-16T22:39:30.513Z,12.29
2022-09-16T22:41:58.740Z,12.28
2022-09-16T22:45:49.510Z,12.28
2022-09-16T22:48:18.283Z,12.27
2022-09-16T22:53:34.634Z,12.25
2022-09-16T22:55:32.884Z,12.25
2022-09-16T22:59:47.419Z,12.22
2022-09-16T23:01:17.291Z,12.22
2022-09-16T23:05:11.855Z,12.21
2022-09-16T23:08:42.388Z,12.21
2022-09-16T23:15:52.887Z,12.10
2022-09-16T23:18:49.490Z,12.09
2022-09-16T23:21:08.045Z,12.06
2022-09-16T23:25:46.162Z,12.06
2022-09-16T23:28:13.904Z,12.03
2022-09-16T23:32:58.984Z,12.00
2022-09-16T23:34:55.977Z,11.99
2022-09-16T23:37:14.548Z,11.95
2022-09-16T23:40:40.160Z,11.95
2022-09-16T23:42:10.063Z,11.95
2022-09-16T23:44:08.975Z,11.94
2022-09-16T23:46:11.986Z,11.94
2022-09-16T23:52:57.989Z,11.87
2022-09-16T23:54:58.709Z,11.87
